Time;durP1;ratioP1;P1;durP2;ratioP2;P2;SDS_P1;SDS_P2;PMS_P1;PMS_P2;Temp;Humidity;BMP_temperature;BMP_pressure;BME280_temperature;BME280_humidity;BME280_pressure;Samples;Min_cycle;Max_cycle;Signal;HPM_P1;HPM_P2
2022/04/06 00:00:00;;;;;;;;;7.00;7.00;;;;;10.85;63.36;100259.13;5057104;28;45756;-63
2022/04/06 00:02:25;;;;;;;;;2.75;2.75;;;;;10.82;63.10;100251.38;5057359;28;45331;-65
2022/04/06 00:04:51;;;;;;;;;3.25;3.25;;;;;10.82;63.75;100254.00;5057373;28;45714;-67
2022/04/06 00:07:17;;;;;;;;;6.25;4.00;;;;;10.81;63.50;100249.66;5057428;28;45387;-67
2022/04/06 00:09:42;;;;;;;;;3.25;3.25;;;;;10.81;63.73;100254.94;5038944;28;47363;-64
2022/04/06 00:12:08;;;;;;;;;7.25;4.75;;;;;10.82;62.95;100246.97;5056871;28;45510;-66
2022/04/06 00:14:34;;;;;;;;;5.25;4.00;;;;;10.78;62.68;100249.81;5057548;28;45334;-67
2022/04/06 00:17:04;;;;;;;;;3.00;3.00;;;;;10.72;62.38;100245.69;5057384;28;45224;-60
2022/04/06 00:19:30;;;;;;;;;3.00;3.00;;;;;10.71;62.21;100248.41;5056999;28;46508;-66
2022/04/06 00:21:56;;;;;;;;;6.00;3.25;;;;;10.68;62.21;100240.66;5056972;28;45375;-65
2022/04/06 00:24:21;;;;;;;;;4.00;4.00;;;;;10.64;62.32;100243.41;5057148;28;45892;-66
2022/04/06 00:26:46;;;;;;;;;4.75;4.00;;;;;10.64;62.82;100238.16;5057094;28;45382;-64
2022/04/06 00:29:12;;;;;;;;;3.50;3.00;;;;;10.65;62.76;100231.97;5056763;28;45974;-67
2022/04/06 00:31:37;;;;;;;;;6.25;2.00;;;;;10.65;62.48;100239.00;5056642;28;45422;-63
2022/04/06 00:34:03;;;;;;;;;5.00;5.00;;;;;10.64;62.86;100232.03;5057063;28;45322;-60
2022/04/06 00:36:29;;;;;;;;;4.00;3.00;;;;;10.60;62.11;100226.06;5056958;28;45370;-64
2022/04/06 00:38:55;;;;;;;;;4.25;3.00;;;;;10.57;62.16;100222.72;5056642;28;46006;-65
2022/04/06 00:41:21;;;;;;;;;4.50;4.50;;;;;10.57;61.86;100222.72;5056417;28;45351;-62
2022/04/06 00:44:10;;;;;;;;;2.00;2.00;;;;;10.56;62.22;100221.84;5056539;28;45284;-64
2022/04/06 00:46:36;;;;;;;;;3.25;1.25;;;;;10.54;62.20;100210.53;5056999;28;45277;-61
2022/04/06 00:49:01;;;;;;;;;4.50;3.50;;;;;10.52;62.20;100201.88;5056280;28;46149;-61
2022/04/06 00:51:27;;;;;;;;;1.00;1.00;;;;;10.51;62.08;100208.06;5056486;28;45393;-62
2022/04/06 00:53:52;;;;;;;;;2.00;2.00;;;;;10.46;62.30;100202.16;5056515;28;45751;-61
2022/04/06 00:56:18;;;;;;;;;4.25;4.25;;;;;10.35;62.94;100198.22;5056986;28;45385;-60
2022/04/06 00:58:44;;;;;;;;;3.00;2.00;;;;;10.21;62.92;100196.22;5056339;28;46324;-65
2022/04/06 01:01:09;;;;;;;;;3.75;2.00;;;;;10.15;63.05;100193.88;5056267;28;45387;-62
2022/04/06 01:03:35;;;;;;;;;2.00;2.00;;;;;10.06;63.96;100196.88;5056801;28;45344;-67
2022/04/06 01:06:00;;;;;;;;;2.00;2.00;;;;;9.96;63.70;100191.19;5038539;28;45399;-69
2022/04/06 01:08:26;;;;;;;;;3.25;1.50;;;;;9.91;64.14;100188.75;5055059;28;45379;-65
2022/04/06 01:10:51;;;;;;;;;1.75;1.75;;;;;9.82;64.17;100194.41;5054909;28;45696;-67
2022/04/06 01:13:17;;;;;;;;;4.00;2.50;;;;;9.72;64.66;100191.34;5056177;28;45288;-67
2022/04/06 01:15:42;;;;;;;;;3.25;1.75;;;;;9.66;64.90;100186.34;5056634;28;45452;-66
2022/04/06 01:18:09;;;;;;;;;4.50;3.50;;;;;9.57;65.32;100179.72;5056263;28;45410;-62
2022/04/06 01:20:35;;;;;;;;;3.00;3.00;;;;;9.52;65.29;100183.44;5056529;28;45398;-62
2022/04/06 01:23:00;;;;;;;;;4.00;2.50;;;;;9.45;66.03;100175.81;5055977;28;45354;-62
2022/04/06 01:25:28;;;;;;;;;2.50;2.50;;;;;9.40;65.90;100169.91;5035394;28;45421;-63
2022/04/06 01:27:54;;;;;;;;;4.50;2.50;;;;;9.34;66.55;100165.78;5033988;28;46543;-62
2022/04/06 01:30:19;;;;;;;;;3.75;3.00;;;;;9.28;66.46;100166.03;5034298;28;45539;-61
2022/04/06 01:32:44;;;;;;;;;5.50;4.25;;;;;9.24;66.84;100172.34;5034575;28;45881;-61
2022/04/06 01:35:10;;;;;;;;;3.00;1.75;;;;;9.20;66.71;100174.22;5033574;28;45439;-61
2022/04/06 01:37:36;;;;;;;;;6.00;3.00;;;;;9.15;67.24;100180.59;5034419;28;46686;-66
2022/04/06 01:40:04;;;;;;;;;2.50;1.25;;;;;9.10;67.17;100162.38;5034788;28;45356;-65
2022/04/06 01:42:29;;;;;;;;;2.75;2.75;;;;;9.04;66.99;100162.63;5034265;28;45500;-65
2022/04/06 01:44:55;;;;;;;;;4.00;2.00;;;;;8.99;67.06;100169.84;5017940;28;45317;-63
2022/04/06 01:47:21;;;;;;;;;2.75;2.00;;;;;8.95;67.59;100174.34;5035477;28;46037;-63
2022/04/06 01:52:32;;;;;;;;;3.75;2.25;;;;;8.87;67.72;100161.56;5035449;28;45368;-67
2022/04/06 01:55:01;;;;;;;;;3.00;3.00;;;;;8.85;68.28;100159.88;5035549;28;45525;-65
2022/04/06 01:57:28;;;;;;;;;3.00;1.50;;;;;8.80;67.94;100157.47;5035123;28;46236;-67
2022/04/06 01:59:53;;;;;;;;;5.50;1.00;;;;;8.78;68.04;100161.91;5035338;28;45346;-66
2022/04/06 02:02:21;;;;;;;;;2.00;2.00;;;;;8.75;67.96;100160.25;5035381;28;45375;-61
2022/04/06 02:04:47;;;;;;;;;3.00;1.75;;;;;8.72;68.29;100160.38;5034309;28;45379;-62
2022/04/06 02:07:15;;;;;;;;;2.50;2.00;;;;;8.71;68.24;100165.69;5034923;28;46772;-63
2022/04/06 02:09:41;;;;;;;;;3.75;2.00;;;;;8.68;68.39;100163.19;5035408;28;45295;-64
2022/04/06 02:12:09;;;;;;;;;1.00;1.00;;;;;8.65;68.65;100158.06;5035422;28;45383;-64
2022/04/06 02:14:34;;;;;;;;;4.00;2.00;;;;;8.61;68.53;100154.69;5033790;28;45379;-65
2022/04/06 02:17:01;;;;;;;;;3.00;1.50;;;;;8.59;68.45;100151.28;5034947;28;46418;-65
2022/04/06 02:19:27;;;;;;;;;1.75;1.75;;;;;8.54;68.88;100154.09;5036454;28;45311;-64
2022/04/06 02:21:52;;;;;;;;;2.25;2.00;;;;;8.55;69.32;100152.31;5038638;28;45354;-64
2022/04/06 02:24:18;;;;;;;;;2.00;2.00;;;;;8.53;68.90;100147.16;5038932;28;45320;-64
2022/04/06 02:26:44;;;;;;;;;2.50;2.00;;;;;8.51;69.04;100154.22;5038353;28;46511;-64
2022/04/06 02:29:09;;;;;;;;;3.50;2.00;;;;;8.48;68.71;100142.03;5037471;28;45398;-65
2022/04/06 02:31:35;;;;;;;;;1.50;1.00;;;;;8.48;69.10;100142.03;5038702;28;45314;-63
2022/04/06 02:34:00;;;;;;;;;4.00;4.00;;;;;8.44;68.90;100135.22;5038629;28;45645;-63
2022/04/06 02:36:26;;;;;;;;;3.00;1.00;;;;;8.49;68.71;100132.47;5020427;28;46912;-65
2022/04/06 02:38:51;;;;;;;;;1.00;1.00;;;;;8.58;68.82;100133.84;5038406;28;45258;-62
2022/04/06 02:41:18;;;;;;;;;1.00;1.00;;;;;8.67;68.40;100138.72;5038739;28;45246;-65
2022/04/06 02:43:43;;;;;;;;;8.00;2.00;;;;;8.76;68.53;100129.66;5038774;28;45508;-62
2022/04/06 02:46:09;;;;;;;;;1.00;1.00;;;;;8.84;67.96;100124.97;5038432;28;45597;-61
2022/04/06 02:48:35;;;;;;;;;1.00;1.00;;;;;8.92;67.90;100119.38;5038316;28;45411;-63
2022/04/06 02:51:00;;;;;;;;;1.25;1.00;;;;;9.01;67.89;100129.53;5037128;28;45482;-64
2022/04/06 02:53:25;;;;;;;;;1.00;1.00;;;;;9.09;67.27;100126.56;5038600;28;45538;-63
2022/04/06 02:55:51;;;;;;;;;0.50;0.50;;;;;9.15;67.49;100121.06;5038152;28;45371;-65
2022/04/06 02:58:16;;;;;;;;;2.00;0.75;;;;;9.20;67.14;100119.09;5020633;28;45303;-64
2022/04/06 03:00:42;;;;;;;;;3.25;1.00;;;;;9.26;67.05;100118.00;5038569;28;45396;-61
2022/04/06 03:03:08;;;;;;;;;3.25;0.75;;;;;9.31;67.30;100117.78;5038388;28;45383;-62
2022/04/06 03:05:33;;;;;;;;;0.00;0.00;;;;;9.34;66.68;100112.41;5038056;28;45326;-67
2022/04/06 03:07:59;;;;;;;;;3.25;0.25;;;;;9.37;66.39;100108.81;5037955;28;45418;-64
2022/04/06 03:10:24;;;;;;;;;0.50;0.50;;;;;9.39;66.64;100102.56;5038159;28;45356;-62
2022/04/06 03:12:50;;;;;;;;;0.50;0.50;;;;;9.42;66.63;100101.59;5038205;28;45534;-66
2022/04/06 03:15:15;;;;;;;;;0.50;0.50;;;;;9.45;66.47;100104.09;5038165;28;45282;-68
2022/04/06 03:17:41;;;;;;;;;1.25;0.50;;;;;9.46;66.04;100103.19;5038176;28;45481;-62
2022/04/06 03:20:13;;;;;;;;;1.00;0.75;;;;;9.46;66.01;100101.38;5036735;28;45178;-64
2022/04/06 03:22:39;;;;;;;;;1.00;1.00;;;;;9.49;66.06;100097.78;5037914;28;45492;-63
2022/04/06 03:25:05;;;;;;;;;0.00;0.00;;;;;9.51;66.18;100098.56;5037774;28;46441;-63
2022/04/06 03:27:30;;;;;;;;;0.25;0.25;;;;;9.49;66.10;100088.13;5037551;28;45286;-65
2022/04/06 03:29:55;;;;;;;;;0.25;0.25;;;;;9.49;65.58;100084.66;5037831;28;45330;-64
2022/04/06 03:32:21;;;;;;;;;0.50;0.25;;;;;9.53;65.38;100088.00;5037191;28;45202;-62
2022/04/06 03:34:46;;;;;;;;;2.00;0.00;;;;;9.50;65.70;100087.22;5037584;28;46264;-63
2022/04/06 03:37:11;;;;;;;;;0.00;0.00;;;;;9.47;65.43;100079.47;5037920;28;45274;-65
2022/04/06 03:39:37;;;;;;;;;0.00;0.00;;;;;9.47;65.38;100079.47;5037813;28;45525;-62
2022/04/06 03:42:02;;;;;;;;;2.00;0.00;;;;;9.46;65.63;100079.56;5037868;28;45234;-65
2022/04/06 03:44:28;;;;;;;;;0.00;0.00;;;;;9.46;65.54;100075.13;5019617;28;47219;-63
2022/04/06 03:46:53;;;;;;;;;0.50;0.00;;;;;9.47;65.35;100076.84;5037235;28;45450;-63
2022/04/06 03:49:19;;;;;;;;;0.00;0.00;;;;;9.47;65.52;100073.38;5037519;28;45482;-67
2022/04/06 03:51:45;;;;;;;;;0.00;0.00;;;;;9.47;65.41;100083.88;5037877;28;45575;-63
2022/04/06 03:54:10;;;;;;;;;0.00;0.00;;;;;9.44;65.58;100070.88;5037415;28;45356;-64
2022/04/06 03:56:35;;;;;;;;;0.00;0.00;;;;;9.47;65.41;100074.22;5037311;28;45336;-65
2022/04/06 03:59:01;;;;;;;;;1.00;1.00;;;;;9.47;65.36;100076.00;5019344;28;45410;-65
2022/04/06 04:01:28;;;;;;;;;0.00;0.00;;;;;9.46;65.33;100069.88;5019565;28;45514;-67
2022/04/06 04:03:53;;;;;;;;;0.00;0.00;;;;;9.46;65.54;100069.88;5037063;28;46323;-63
2022/04/06 04:06:19;;;;;;;;;0.00;0.00;;;;;9.47;65.59;100070.75;5036937;28;45335;-62
2022/04/06 04:08:44;;;;;;;;;0.00;0.00;;;;;9.47;65.54;100073.38;5037385;28;45749;-62
2022/04/06 04:11:09;;;;;;;;;0.25;0.25;;;;;9.46;65.38;100058.53;5037169;28;45532;-64
2022/04/06 04:13:35;;;;;;;;;0.00;0.00;;;;;9.48;65.57;100068.03;5036790;28;46063;-63
2022/04/06 04:16:00;;;;;;;;;0.50;0.50;;;;;9.50;65.50;100062.75;5036679;28;45489;-66
2022/04/06 04:18:26;;;;;;;;;0.00;0.00;;;;;9.48;65.79;100059.34;5036984;28;45343;-67
2022/04/06 04:21:31;;;;;;;;;0.25;0.25;;;;;9.48;65.77;100054.91;5037130;28;45300;-67
2022/04/06 04:23:36;;;;;;;;;0.00;0.00;;;;;9.49;65.87;100061.88;5036490;28;46365;-65
2022/04/06 04:26:01;;;;;;;;;0.50;0.50;;;;;9.53;65.54;100062.59;5036580;28;45430;-65
2022/04/06 04:28:30;;;;;;;;;0.00;0.00;;;;;9.57;65.31;100066.78;5035495;28;45407;-64
2022/04/06 04:30:55;;;;;;;;;0.00;0.00;;;;;9.59;65.56;100059.72;5036960;28;45522;-62
2022/04/06 04:33:23;;;;;;;;;0.00;0.00;;;;;9.60;65.70;100055.31;5035629;28;46076;-63
2022/04/06 04:35:49;;;;;;;;;0.75;0.00;;;;;9.61;65.82;100057.88;5035317;28;45519;-63
2022/04/06 04:38:15;;;;;;;;;0.25;0.25;;;;;9.62;65.61;100064.81;5036952;28;45222;-61
2022/04/06 04:40:40;;;;;;;;;2.75;0.75;;;;;9.58;65.93;100038.78;5036380;28;45507;-63
2022/04/06 04:43:05;;;;;;;;;4.00;0.50;;;;;9.61;66.00;100050.00;5034851;28;45505;-66
2022/04/06 04:45:31;;;;;;;;;0.25;0.25;;;;;9.61;66.07;100052.59;5034981;28;45436;-69
2022/04/06 04:47:57;;;;;;;;;2.00;0.75;;;;;9.60;66.13;100045.66;5036557;28;45285;-64
2022/04/06 04:50:23;;;;;;;;;2.25;0.75;;;;;9.60;65.96;100039.56;5035270;28;45722;-67
2022/04/06 04:52:48;;;;;;;;;5.00;4.25;;;;;9.60;65.96;100039.56;5036309;28;45614;-65
2022/04/06 04:55:14;;;;;;;;;2.50;0.75;;;;;9.60;66.03;100039.56;5036253;28;45345;-62
2022/04/06 04:57:39;;;;;;;;;0.50;0.50;;;;;9.58;65.96;100034.38;5036220;28;45474;-61
2022/04/06 05:00:08;;;;;;;;;1.25;1.25;;;;;9.60;66.33;100031.69;5036111;28;45447;-62
2022/04/06 05:02:34;;;;;;;;;0.75;0.75;;;;;9.63;65.77;100023.66;5034915;28;46414;-61
2022/04/06 05:04:59;;;;;;;;;5.00;3.50;;;;;9.67;65.42;100024.38;5036038;28;45258;-63
2022/04/06 05:07:24;;;;;;;;;0.25;0.25;;;;;9.66;65.13;100020.91;5036306;28;45321;-63
2022/04/06 05:09:50;;;;;;;;;3.00;1.25;;;;;9.70;65.36;100021.59;5036677;28;45237;-63
2022/04/06 05:12:16;;;;;;;;;1.00;1.00;;;;;9.69;65.58;100022.53;5035850;28;46625;-64
2022/04/06 05:14:42;;;;;;;;;0.75;0.75;;;;;9.70;65.10;100021.59;5036402;28;45363;-66
2022/04/06 05:17:08;;;;;;;;;2.25;0.75;;;;;9.71;65.17;100028.56;5036297;28;45256;-63
2022/04/06 05:19:33;;;;;;;;;0.50;0.50;;;;;9.72;65.18;100032.88;5036350;28;45566;-61
2022/04/06 05:21:59;;;;;;;;;5.50;2.50;;;;;9.73;65.53;100021.47;5035603;28;48185;-64
2022/04/06 05:24:25;;;;;;;;;5.00;3.25;;;;;9.74;65.22;100021.41;5017869;28;45377;-64
2022/04/06 05:26:51;;;;;;;;;3.50;0.75;;;;;9.77;65.36;100020.41;5036388;28;45323;-66
2022/04/06 05:29:16;;;;;;;;;2.50;2.50;;;;;9.77;65.05;100013.38;5035947;28;45253;-65
2022/04/06 05:31:41;;;;;;;;;3.00;2.00;;;;;9.81;65.35;100010.63;5017858;28;46499;-67
2022/04/06 05:34:07;;;;;;;;;4.75;3.00;;;;;9.83;65.23;100014.03;5035995;28;45415;-66
2022/04/06 05:36:32;;;;;;;;;3.75;2.75;;;;;9.83;65.38;100020.13;5035580;28;45378;-63
2022/04/06 05:38:58;;;;;;;;;5.00;3.50;;;;;9.84;65.39;100020.97;5034480;28;45318;-63
2022/04/06 05:41:24;;;;;;;;;1.75;1.50;;;;;9.88;65.36;100018.13;5035477;28;45395;-63
2022/04/06 05:43:50;;;;;;;;;2.25;2.25;;;;;9.88;65.01;100026.00;5035506;28;45490;-62
2022/04/06 05:46:15;;;;;;;;;2.00;2.00;;;;;9.89;65.00;100025.09;5035258;28;45229;-65
2022/04/06 05:48:40;;;;;;;;;1.25;0.50;;;;;9.89;64.89;100029.50;5035644;28;45517;-65
2022/04/06 05:51:06;;;;;;;;;3.25;1.75;;;;;9.86;64.88;100019.13;5035317;28;46179;-63
2022/04/06 05:53:31;;;;;;;;;2.50;2.50;;;;;9.88;65.43;100027.81;5034807;28;45348;-65
2022/04/06 05:55:57;;;;;;;;;2.50;2.25;;;;;9.86;64.93;100027.84;5035405;28;45228;-62
2022/04/06 05:58:23;;;;;;;;;4.00;1.75;;;;;9.84;65.12;100024.44;5035492;28;45237;-66
2022/04/06 06:00:48;;;;;;;;;2.75;2.75;;;;;9.85;65.30;100023.53;5035153;28;46387;-64
2022/04/06 06:03:13;;;;;;;;;3.00;1.00;;;;;9.82;65.30;100021.03;5035214;28;45434;-60
2022/04/06 06:05:39;;;;;;;;;2.50;2.50;;;;;9.82;65.72;100015.78;5035536;28;45391;-71
2022/04/06 06:08:04;;;;;;;;;4.50;3.50;;;;;9.82;65.91;100022.84;5035401;28;45363;-67
2022/04/06 06:10:30;;;;;;;;;3.25;3.00;;;;;9.84;65.75;100015.72;5035008;28;46371;-66
2022/04/06 06:12:55;;;;;;;;;3.00;2.00;;;;;9.86;66.01;100025.22;5016880;28;45429;-65
2022/04/06 06:15:21;;;;;;;;;7.25;4.75;;;;;9.87;66.16;100019.06;5035206;28;45441;-65
2022/04/06 06:17:46;;;;;;;;;5.25;3.00;;;;;9.86;66.11;100019.97;5035544;28;45506;-63
2022/04/06 06:20:11;;;;;;;;;3.75;3.75;;;;;9.84;66.00;100016.56;5034686;28;46534;-63
2022/04/06 06:22:38;;;;;;;;;3.75;3.00;;;;;9.88;66.33;100017.28;5035519;28;45400;-66
2022/04/06 06:25:04;;;;;;;;;4.50;3.00;;;;;9.87;66.70;100018.22;5035044;28;45360;-64
2022/04/06 06:27:29;;;;;;;;;3.75;2.00;;;;;9.86;66.76;100000.75;5034957;28;45510;-64
2022/04/06 06:29:55;;;;;;;;;2.50;1.50;;;;;9.89;66.45;99998.81;5034681;28;45704;-69
2022/04/06 06:32:20;;;;;;;;;5.25;4.25;;;;;9.96;66.56;100007.28;5033143;28;45261;-63
2022/04/06 06:34:49;;;;;;;;;4.75;2.75;;;;;9.98;66.20;100005.44;5034645;28;45232;-69
2022/04/06 06:37:14;;;;;;;;;4.25;4.00;;;;;10.04;66.15;100009.53;5034635;28;45388;-64
2022/04/06 06:39:39;;;;;;;;;5.00;3.00;;;;;10.06;66.24;100005.91;5032763;28;48037;-64
2022/04/06 06:42:05;;;;;;;;;5.00;3.25;;;;;10.09;65.69;100012.81;5033064;28;45339;-60
2022/04/06 06:44:31;;;;;;;;;4.75;4.75;;;;;10.12;65.90;99999.53;5033144;28;45469;-63
2022/04/06 06:46:56;;;;;;;;;4.75;3.00;;;;;10.17;66.07;99997.53;5035079;28;45328;-63
2022/04/06 06:49:21;;;;;;;;;4.00;2.50;;;;;10.18;65.69;99999.25;5034377;28;45304;-62
2022/04/06 06:51:47;;;;;;;;;3.00;2.25;;;;;10.20;65.76;99991.25;5034380;28;45262;-66
2022/04/06 06:54:12;;;;;;;;;3.00;2.75;;;;;10.21;65.44;100004.34;5034362;28;45276;-64
2022/04/06 06:56:37;;;;;;;;;3.00;2.00;;;;;10.25;65.20;100004.19;5034600;28;45451;-64
2022/04/06 06:59:03;;;;;;;;;5.50;2.25;;;;;10.29;65.08;100003.13;5034627;28;45541;-62
2022/04/06 07:01:28;;;;;;;;;4.00;2.25;;;;;10.23;65.01;99986.72;5034102;28;45249;-61
2022/04/06 07:03:53;;;;;;;;;5.00;5.00;;;;;10.35;65.07;99994.94;5034751;28;45341;-63
2022/04/06 07:06:19;;;;;;;;;4.25;3.50;;;;;10.42;64.98;99985.00;5035624;28;45549;-63
2022/04/06 07:08:44;;;;;;;;;5.00;3.00;;;;;10.44;65.25;99991.88;5019438;28;48495;-66
2022/04/06 07:11:10;;;;;;;;;4.50;3.00;;;;;10.52;64.70;99986.22;5019463;28;45296;-65
2022/04/06 07:13:36;;;;;;;;;4.25;2.75;;;;;10.58;63.93;99991.19;5037736;28;45274;-64
2022/04/06 07:16:02;;;;;;;;;2.25;2.00;;;;;10.58;64.67;99985.94;5036471;28;45306;-64
2022/04/06 07:18:29;;;;;;;;;5.25;4.00;;;;;10.62;64.15;99976.13;5019948;28;46127;-65
2022/04/06 07:20:54;;;;;;;;;7.75;2.00;;;;;10.69;64.32;99980.16;5036537;28;45495;-68
2022/04/06 07:23:20;;;;;;;;;5.50;3.25;;;;;10.73;63.87;99970.34;5037937;28;45269;-65
2022/04/06 07:25:45;;;;;;;;;2.25;2.25;;;;;10.78;63.75;99986.72;5037851;28;45593;-70
2022/04/06 07:28:11;;;;;;;;;4.75;2.75;;;;;10.82;63.74;99980.38;5052308;27;45585;-72
2022/04/06 07:30:36;;;;;;;;;2.25;2.25;;;;;10.85;63.76;99982.88;5056616;28;45470;-69
2022/04/06 07:33:02;;;;;;;;;4.00;2.75;;;;;10.90;63.60;99979.97;5068561;28;45433;-64
2022/04/06 07:35:27;;;;;;;;;2.75;2.75;;;;;10.96;63.14;99974.41;5063261;28;45858;-65
2022/04/06 07:37:55;;;;;;;;;2.00;2.00;;;;;10.99;62.62;99976.88;5064823;27;46151;-64
2022/04/06 07:40:23;;;;;;;;;6.50;3.50;;;;;11.04;63.25;99974.00;5069397;27;45411;-69
2022/04/06 07:42:49;;;;;;;;;4.25;3.00;;;;;11.08;62.77;99972.94;5067361;27;45264;-67
2022/04/06 07:45:17;;;;;;;;;2.75;2.75;;;;;11.16;62.59;99993.59;5061243;28;45543;-63
2022/04/06 07:47:47;;;;;;;;;1.50;0.75;;;;;11.14;62.02;99974.41;5071604;27;45886;-68
2022/04/06 07:50:13;;;;;;;;;7.00;2.75;;;;;11.15;62.69;99984.00;5043347;28;45391;-62
2022/04/06 07:52:39;;;;;;;;;5.00;3.00;;;;;11.15;62.22;99976.94;5067033;28;45481;-71
2022/04/06 07:55:07;;;;;;;;;5.25;4.75;;;;;11.20;62.09;99980.19;5067978;28;45556;-68
2022/04/06 07:57:33;;;;;;;;;2.00;1.75;;;;;11.25;61.84;99977.31;5059779;28;46336;-66
2022/04/06 08:00:11;;;;;;;;;4.00;2.50;;;;;11.29;61.92;99965.69;5059599;28;45396;-66
2022/04/06 08:02:37;;;;;;;;;2.00;2.00;;;;;11.32;61.75;99967.28;5067939;28;45438;-66
2022/04/06 08:05:04;;;;;;;;;3.00;1.00;;;;;11.32;61.86;99957.63;5068935;28;45597;-63
2022/04/06 08:07:30;;;;;;;;;4.00;2.50;;;;;11.38;61.73;99961.69;5060174;28;46043;-64
2022/04/06 08:09:55;;;;;;;;;6.00;3.00;;;;;11.46;61.43;99956.03;5073364;27;45565;-67
2022/04/06 08:12:21;;;;;;;;;4.00;2.25;;;;;11.53;61.38;99946.88;5063247;28;45397;-64
2022/04/06 08:14:48;;;;;;;;;2.00;2.00;;;;;11.60;60.94;99947.38;5066711;28;45414;-65
2022/04/06 08:17:15;;;;;;;;;2.00;2.00;;;;;11.65;61.06;99947.97;5070180;28;47179;-70
2022/04/06 08:19:41;;;;;;;;;2.00;2.00;;;;;11.71;60.64;99945.03;5059321;28;45391;-68
2022/04/06 08:22:07;;;;;;;;;2.00;2.00;;;;;11.79;60.69;99934.91;5053527;28;45471;-67
2022/04/06 08:24:33;;;;;;;;;2.75;2.00;;;;;11.89;60.83;99942.28;5046626;28;45517;-66
2022/04/06 08:26:58;;;;;;;;;2.50;2.00;;;;;11.97;60.06;99938.28;5041615;28;47281;-65
2022/04/06 08:29:24;;;;;;;;;6.75;3.00;;;;;12.04;59.69;99941.47;5060876;28;45458;-66
2022/04/06 08:31:49;;;;;;;;;3.75;2.00;;;;;12.11;60.13;99942.81;5072749;28;45569;-65
2022/04/06 08:34:15;;;;;;;;;3.25;3.25;;;;;12.16;59.59;99944.34;5060577;28;45327;-67
2022/04/06 08:36:43;;;;;;;;;5.25;3.00;;;;;12.19;59.62;99939.72;5069148;28;46052;-63
2022/04/06 08:39:09;;;;;;;;;4.00;3.25;;;;;12.25;59.39;99938.53;5068894;27;45566;-66
2022/04/06 08:41:35;;;;;;;;;9.75;5.00;;;;;12.29;59.10;99941.84;5059339;28;45466;-67
2022/04/06 08:44:01;;;;;;;;;2.25;2.25;;;;;12.30;59.09;99928.56;5054256;28;45371;-65
2022/04/06 08:46:34;;;;;;;;;7.00;6.00;;;;;12.35;58.40;99946.78;5044927;28;45626;-67
2022/04/06 08:49:00;;;;;;;;;3.50;2.50;;;;;12.27;58.65;99937.53;5046188;28;45370;-66
2022/04/06 08:51:28;;;;;;;;;4.00;2.00;;;;;12.30;59.20;99935.66;5070193;27;45441;-68
2022/04/06 08:53:54;;;;;;;;;3.75;3.75;;;;;12.38;58.65;99928.13;5059069;28;45307;-68
2022/04/06 08:56:20;;;;;;;;;1.50;1.50;;;;;12.45;58.62;99931.25;5069029;27;45538;-71
2022/04/06 08:58:45;;;;;;;;;3.25;3.00;;;;;12.46;58.31;99923.25;5047268;28;45486;-65
2022/04/06 09:01:11;;;;;;;;;4.00;2.00;;;;;12.51;58.45;99939.66;5062073;28;45382;-65
2022/04/06 09:03:36;;;;;;;;;3.00;3.00;;;;;12.54;58.56;99935.97;5072314;27;45365;-67
2022/04/06 09:06:05;;;;;;;;;4.50;3.25;;;;;12.59;58.42;99933.09;5059297;28;45839;-70
2022/04/06 09:08:40;;;;;;;;;2.00;2.00;;;;;12.66;58.57;99929.97;5067711;28;45309;-69
2022/04/06 09:11:08;;;;;;;;;6.50;4.50;;;;;12.73;58.05;99925.19;5068409;27;45393;-70
2022/04/06 09:13:33;;;;;;;;;3.25;2.00;;;;;12.79;57.94;99927.47;5059357;28;45900;-71
2022/04/06 09:16:00;;;;;;;;;4.00;4.00;;;;;12.83;58.02;99925.50;5042387;27;45458;-69
2022/04/06 09:18:51;;;;;;;;;7.00;4.00;;;;;12.93;57.51;99934.56;5068251;28;45496;-67
2022/04/06 09:21:19;;;;;;;;;3.75;3.75;;;;;12.97;57.48;99928.16;5067679;28;45317;-66
2022/04/06 09:23:49;;;;;;;;;3.75;3.75;;;;;13.08;57.48;99927.47;5041198;28;45497;-70
2022/04/06 09:26:20;;;;;;;;;8.00;5.00;;;;;13.18;57.25;99926.91;5069622;28;45441;-68
2022/04/06 09:28:47;;;;;;;;;4.50;3.75;;;;;13.30;56.99;99924.38;5064326;28;45350;-68
2022/04/06 09:31:17;;;;;;;;;4.00;3.00;;;;;13.37;56.37;99921.34;5062011;28;45554;-71
2022/04/06 09:33:55;;;;;;;;;4.75;3.00;;;;;13.36;56.40;99914.38;5072216;27;45751;-69
2022/04/06 09:36:21;;;;;;;;;8.50;4.00;;;;;13.35;55.77;99924.09;5043019;28;48507;-69
2022/04/06 09:38:51;;;;;;;;;6.00;5.00;;;;;13.24;56.13;99929.19;5064483;28;45334;-68
2022/04/06 09:41:18;;;;;;;;;2.00;2.00;;;;;13.18;56.28;99929.56;5069330;28;45264;-67
2022/04/06 09:43:45;;;;;;;;;5.25;5.25;;;;;13.14;56.74;99921.81;5058336;28;45465;-67
2022/04/06 09:49:12;;;;;;;;;5.00;5.00;;;;;13.25;56.56;99933.50;5068166;28;45370;-68
2022/04/06 09:51:39;;;;;;;;;4.50;4.50;;;;;13.25;55.85;99928.22;5058062;28;45399;-68
2022/04/06 09:54:07;;;;;;;;;2.25;2.25;;;;;13.16;55.76;99927.03;5071102;28;45507;-68
2022/04/06 09:56:34;;;;;;;;;3.00;3.00;;;;;13.08;55.87;99924.00;5063243;28;46000;-70
2022/04/06 09:59:03;;;;;;;;;4.00;4.00;;;;;13.10;56.09;99927.41;5062908;28;45282;-69
2022/04/06 10:01:35;;;;;;;;;7.00;6.00;;;;;13.14;55.86;99921.81;5070812;28;45466;-70
2022/04/06 10:04:07;;;;;;;;;5.75;5.50;;;;;13.16;55.92;99932.31;5024548;28;45489;-68
2022/04/06 10:06:37;;;;;;;;;7.75;6.00;;;;;13.17;55.87;99935.78;5066544;28;45481;-68
2022/04/06 10:09:05;;;;;;;;;8.50;8.00;;;;;13.10;56.13;99935.31;5067193;28;45731;-66
2022/04/06 10:11:33;;;;;;;;;5.25;4.00;;;;;13.02;55.99;99924.38;5058579;28;45481;-71
2022/04/06 10:14:01;;;;;;;;;4.50;4.00;;;;;13.03;56.15;99929.56;5058595;28;45503;-69
2022/04/06 10:16:27;;;;;;;;;7.00;6.00;;;;;13.07;56.20;99924.94;5048361;28;48557;-68
2022/04/06 10:18:54;;;;;;;;;6.00;6.00;;;;;13.14;56.45;99918.34;5054252;28;45320;-72
2022/04/06 10:21:31;;;;;;;;;6.75;5.00;;;;;13.26;56.04;99914.13;5053151;28;45518;-67
2022/04/06 10:24:09;;;;;;;;;6.00;4.50;;;;;13.34;55.84;99903.06;5055137;28;45385;-68
2022/04/06 10:26:46;;;;;;;;;6.50;4.00;;;;;13.41;55.42;99907.00;5054197;28;46406;-66
2022/04/06 10:29:11;;;;;;;;;9.75;7.25;;;;;13.43;55.48;99894.59;5054397;28;45362;-66
2022/04/06 10:31:36;;;;;;;;;4.25;4.00;;;;;13.48;55.28;99895.13;5054607;28;45301;-65
2022/04/06 10:34:25;;;;;;;;;5.50;5.50;;;;;13.46;55.20;99886.47;5055649;28;45607;-66
2022/04/06 10:37:15;;;;;;;;;5.00;5.00;;;;;13.48;55.02;99886.38;5054220;28;46284;-65
2022/04/06 10:39:57;;;;;;;;;6.00;6.00;;;;;13.50;55.11;99882.69;5054769;28;45400;-66
2022/04/06 10:42:37;;;;;;;;;6.75;5.50;;;;;13.56;54.93;99879.63;5039522;28;45491;-71
2022/04/06 10:45:05;;;;;;;;;6.75;6.75;;;;;13.61;55.04;99875.84;5057824;28;45207;-69
2022/04/06 10:47:32;;;;;;;;;9.25;7.25;;;;;13.62;55.00;99877.56;5057407;28;47129;-69
2022/04/06 10:50:15;;;;;;;;;6.50;6.50;;;;;13.56;55.03;99874.34;5057969;28;45371;-71
2022/04/06 10:52:43;;;;;;;;;9.50;7.75;;;;;13.48;54.92;99866.06;5039265;28;45490;-69
2022/04/06 10:55:20;;;;;;;;;9.50;8.50;;;;;13.43;55.31;99865.53;5057904;28;45589;-67
2022/04/06 10:58:04;;;;;;;;;8.75;7.75;;;;;13.41;55.22;99856.81;5058027;28;45217;-69
2022/04/06 11:00:31;;;;;;;;;8.00;6.75;;;;;13.39;55.62;99854.28;5039776;28;45754;-63
2022/04/06 11:03:19;;;;;;;;;8.00;7.25;;;;;13.30;55.97;99845.13;5058075;28;45289;-69
2022/04/06 11:05:49;;;;;;;;;5.50;5.50;;;;;13.25;55.50;99841.94;5058032;28;45500;-68
2022/04/06 11:11:36;;;;;;;;;9.00;6.50;;;;;13.24;56.41;99832.31;5057781;28;45213;-67
2022/04/06 11:14:02;;;;;;;;;9.00;6.00;;;;;13.32;56.28;99831.00;5057981;28;45387;-72
2022/04/06 11:16:45;;;;;;;;;11.25;7.25;;;;;13.42;56.42;99827.72;5057054;28;45481;-65
2022/04/06 11:19:11;;;;;;;;;8.50;8.50;;;;;13.62;56.27;99822.06;5057111;28;46065;-68
2022/04/06 11:21:58;;;;;;;;;5.50;5.50;;;;;13.76;56.16;99811.44;5057479;28;45933;-66
2022/04/06 11:24:27;;;;;;;;;10.00;7.25;;;;;13.86;56.08;99815.19;5057458;28;45430;-67
2022/04/06 11:26:54;;;;;;;;;9.00;8.00;;;;;13.88;55.82;99813.28;5058589;28;45679;-69
2022/04/06 11:29:26;;;;;;;;;5.25;5.25;;;;;13.82;56.00;99812.84;5057349;28;45431;-69
2022/04/06 11:32:05;;;;;;;;;6.75;6.75;;;;;13.79;56.11;99797.19;5057235;28;45410;-71
2022/04/06 11:34:39;;;;;;;;;21.25;18.00;;;;;13.78;56.37;99795.47;5057095;28;45343;-69
2022/04/06 11:37:07;;;;;;;;;8.00;7.25;;;;;13.85;56.53;99796.78;5057457;28;45447;-70
2022/04/06 11:39:33;;;;;;;;;10.50;8.25;;;;;13.98;56.43;99789.72;5057167;28;45423;-69